createdAt,value
2023-05-09T04:06:06.841Z,101288.13
2023-05-09T04:09:09.878Z,101288.13
2023-05-09T04:12:14.836Z,101301.19
2023-05-09T04:15:17.730Z,101297.72
2023-05-09T04:18:20.330Z,101300.12
2023-05-09T04:21:22.704Z,101302.31
2023-05-09T04:24:24.954Z,101303.66
2023-05-09T04:27:28.146Z,101305.28
2023-05-09T04:30:30.816Z,101304.75
2023-05-09T04:33:33.325Z,101307.72
2023-05-09T04:36:36.251Z,101298.84
2023-05-09T04:39:39.098Z,101302.88
2023-05-09T04:42:42.209Z,101306.72
2023-05-09T04:45:45.580Z,101303.78
2023-05-09T04:48:48.203Z,101304.50
2023-05-09T04:51:53.407Z,101305.38
2023-05-09T04:54:55.590Z,101298.13
2023-05-09T04:57:58.231Z,101306.19
2023-05-09T05:01:00.472Z,101296.81
2023-05-09T05:04:02.933Z,101299.75
2023-05-09T05:07:05.982Z,101304.06
2023-05-09T05:10:09.623Z,101306.47
2023-05-09T05:13:12.122Z,101304.84
2023-05-09T05:16:16.294Z,101313.47
2023-05-09T05:19:19.233Z,101312.66
2023-05-09T05:22:21.625Z,101304.06
2023-05-09T05:25:24.458Z,101312.91
2023-05-09T05:28:27.157Z,101311.28
2023-05-09T05:31:29.371Z,101311.53
2023-05-09T05:34:31.805Z,101312.03
2023-05-09T05:37:33.972Z,101314.94
2023-05-09T05:40:36.530Z,101305.50
2023-05-09T05:43:39.180Z,101299.03
2023-05-09T05:46:42.299Z,101300.03
2023-05-09T05:49:45.108Z,101305.91
2023-05-09T05:52:47.717Z,101301.25
2023-05-09T05:55:50.366Z,101306.59
2023-05-09T05:58:53.957Z,101303.91
2023-05-09T06:01:56.801Z,101303.06
2023-05-09T06:04:59.474Z,101312.31
2023-05-09T06:08:01.703Z,101300.03
2023-05-09T06:11:05.870Z,101307.94
2023-05-09T06:14:12.946Z,101303.41
2023-05-09T06:17:15.722Z,101310.09
2023-05-09T06:20:18.107Z,101312.16
2023-05-09T06:23:22.213Z,101313.06
2023-05-09T06:26:24.367Z,101312.75
2023-05-09T06:29:26.795Z,101304.09
2023-05-09T06:32:28.953Z,101296.47
2023-05-09T06:35:31.359Z,101297.22
2023-05-09T06:38:34.927Z,101294.16
2023-05-09T06:41:37.382Z,101300.34
2023-05-09T06:44:39.496Z,101299.03
2023-05-09T06:47:41.929Z,101291.72
2023-05-09T06:50:44.100Z,101292.38
2023-05-09T06:53:46.599Z,101280.78
2023-05-09T06:56:48.803Z,101283.25
2023-05-09T06:59:51.173Z,101283.34
2023-05-09T07:02:53.372Z,101281.63
2023-05-09T07:06:01.894Z,101268.25
2023-05-09T07:09:04.440Z,101272.94
2023-05-09T07:12:07.046Z,101276.22
2023-05-09T07:15:09.963Z,101270.38
2023-05-09T07:18:12.563Z,101270.63
2023-05-09T07:21:14.683Z,101263.97
2023-05-09T07:24:17.068Z,101258.94
2023-05-09T07:27:19.197Z,101260.97
2023-05-09T07:30:21.773Z,101255.62
2023-05-09T07:33:24.045Z,101251.50
2023-05-09T07:36:26.460Z,101252.34
2023-05-09T07:39:28.534Z,101243.75
2023-05-09T07:42:32.550Z,101244.22
2023-05-09T07:45:34.811Z,101245.03
2023-05-09T07:48:37.299Z,101241.56
2023-05-09T07:51:39.476Z,101227.00
2023-05-09T07:54:41.892Z,101238.06
2023-05-09T07:57:44.001Z,101227.75
2023-05-09T08:00:46.552Z,101222.91
2023-05-09T08:03:49.161Z,101218.84
2023-05-09T08:06:51.458Z,101216.34
2023-05-09T08:09:53.854Z,101219.25
2023-05-09T08:12:56.560Z,101214.28
2023-05-09T08:15:59.283Z,101207.97
2023-05-09T08:19:01.444Z,101208.56
2023-05-09T08:22:04.252Z,101194.56
2023-05-09T08:25:10.436Z,101201.16
2023-05-09T08:28:12.892Z,101184.72
2023-05-09T08:31:15.433Z,101197.66
2023-05-09T08:34:17.811Z,101189.53
2023-05-09T08:37:19.905Z,101187.31
2023-05-09T08:40:22.510Z,101189.66
2023-05-09T08:43:25.015Z,101193.56
2023-05-09T08:46:36.471Z,101188.16
2023-05-09T08:49:40.079Z,101193.66
2023-05-09T08:52:42.726Z,101190.94
2023-05-09T08:55:45.104Z,101187.16
2023-05-09T08:58:47.646Z,101190.25
2023-05-09T09:01:51.289Z,101179.81
2023-05-09T09:04:55.118Z,101180.28
2023-05-09T09:07:58.525Z,101179.28
2023-05-09T09:11:01.035Z,101173.44
2023-05-09T09:14:12.924Z,101165.81
2023-05-09T09:17:19.610Z,101164.66
2023-05-09T09:20:22.896Z,101166.00
2023-05-09T09:23:28.922Z,101165.69
2023-05-09T09:26:31.742Z,101154.06
2023-05-09T09:29:34.437Z,101157.28
2023-05-09T09:32:37.729Z,101162.19
2023-05-09T09:35:41.052Z,101162.37
2023-05-09T09:38:43.887Z,101156.38
2023-05-09T09:41:46.361Z,101161.78
2023-05-09T09:44:56.437Z,101161.88
2023-05-09T09:47:58.886Z,101161.31
2023-05-09T09:51:10.532Z,101156.44
2023-05-09T09:54:13.366Z,101159.03
2023-05-09T09:57:34.114Z,101155.69
2023-05-09T10:00:37.010Z,101151.47
2023-05-09T10:03:42.911Z,101148.75
2023-05-09T10:07:05.931Z,101141.66
2023-05-09T10:10:09.053Z,101138.19
2023-05-09T10:13:12.492Z,101138.53
2023-05-09T10:16:15.076Z,101140.91
2023-05-09T10:19:19.789Z,101127.00
2023-05-09T10:22:23.750Z,101139.75
2023-05-09T10:25:33.529Z,101131.28
2023-05-09T10:28:40.322Z,101122.81
2023-05-09T10:31:44.370Z,101120.94
2023-05-09T10:34:52.435Z,101122.38
2023-05-09T10:37:59.332Z,101117.56
2023-05-09T10:41:02.291Z,101120.59
2023-05-09T10:44:04.566Z,101118.94
2023-05-09T10:47:07.755Z,101110.66
2023-05-09T10:50:13.207Z,101115.72
2023-05-09T10:53:17.118Z,101122.09
2023-05-09T10:56:38.613Z,101111.87
2023-05-09T10:59:43.007Z,101114.06
2023-05-09T11:03:08.439Z,101107.50
2023-05-09T11:06:54.000Z,101114.13
2023-05-09T11:10:14.863Z,101109.75
2023-05-09T11:13:25.883Z,101101.78
2023-05-09T11:16:28.276Z,101110.91
2023-05-09T11:19:53.808Z,101090.69
2023-05-09T11:22:57.357Z,101099.19
2023-05-09T11:26:08.338Z,101083.44
2023-05-09T11:29:10.544Z,101083.22
2023-05-09T11:32:16.255Z,101081.06
2023-05-09T11:35:21.261Z,101083.25
2023-05-09T11:38:23.732Z,101081.34
2023-05-09T11:41:27.400Z,101080.13
2023-05-09T11:44:33.305Z,101083.81
2023-05-09T11:47:37.586Z,101068.19
2023-05-09T11:50:41.560Z,101073.28
2023-05-09T11:53:46.712Z,101077.41
2023-05-09T11:56:49.226Z,101075.88
2023-05-09T11:59:51.451Z,101072.31
2023-05-09T12:02:54.291Z,101064.69
2023-05-09T12:05:56.991Z,101060.09
2023-05-09T12:08:59.264Z,101054.97
2023-05-09T12:12:01.693Z,101048.75
2023-05-09T12:15:07.296Z,101048.31
2023-05-09T12:18:09.730Z,101046.06
2023-05-09T12:21:12.577Z,101032.00
2023-05-09T12:24:20.619Z,101047.66
2023-05-09T12:27:23.442Z,101049.41
2023-05-09T12:30:26.234Z,101039.47
2023-05-09T12:33:29.812Z,101030.25
2023-05-09T12:36:35.326Z,101024.50
2023-05-09T12:39:37.748Z,101029.63
2023-05-09T12:42:44.348Z,101025.69
2023-05-09T12:45:52.873Z,101022.34
2023-05-09T12:48:55.585Z,101023.59
2023-05-09T12:52:01.656Z,101012.25
2023-05-09T12:55:14.955Z,101010.50
2023-05-09T12:58:17.324Z,101004.09
2023-05-09T13:01:21.296Z,101011.91
2023-05-09T13:04:25.537Z,100997.22
2023-05-09T13:07:27.946Z,100989.84
2023-05-09T13:10:30.329Z,100994.81
2023-05-09T13:13:33.024Z,100999.59
2023-05-09T13:16:35.197Z,100991.50
2023-05-09T13:19:40.166Z,100980.31
2023-05-09T13:22:45.753Z,100979.69
2023-05-09T13:25:48.260Z,100977.94
2023-05-09T13:28:50.525Z,100969.97
2023-05-09T13:31:52.917Z,100964.88
2023-05-09T13:34:55.103Z,100968.22
2023-05-09T13:37:58.791Z,100965.00
2023-05-09T13:41:02.146Z,100965.94
2023-05-09T13:44:04.750Z,100949.50
2023-05-09T13:47:07.802Z,100962.28
2023-05-09T13:50:10.905Z,100955.03
2023-05-09T13:53:15.193Z,100947.53
2023-05-09T13:56:17.605Z,100948.19
2023-05-09T13:59:20.060Z,100935.69
2023-05-09T14:02:24.479Z,100940.50
2023-05-09T14:05:27.007Z,100934.56
2023-05-09T14:08:29.592Z,100929.69
2023-05-09T14:11:32.077Z,100923.62
2023-05-09T14:14:34.182Z,100924.28
2023-05-09T14:17:36.825Z,100930.03
2023-05-09T14:20:40.610Z,100925.84
2023-05-09T14:23:43.618Z,100928.94
2023-05-09T14:26:46.518Z,100924.25
2023-05-09T14:29:49.302Z,100918.03
2023-05-09T14:32:51.385Z,100906.69
2023-05-09T14:35:53.828Z,100907.66
2023-05-09T14:38:55.988Z,100906.66
2023-05-09T14:41:58.406Z,100906.50
2023-05-09T14:45:00.530Z,100907.63
2023-05-09T14:48:05.897Z,100905.59
2023-05-09T14:51:08.228Z,100908.75
2023-05-09T14:54:10.883Z,100902.22
2023-05-09T14:57:13.245Z,100899.38
2023-05-09T15:00:21.284Z,100893.28
2023-05-09T15:03:24.256Z,100898.09
2023-05-09T15:06:26.738Z,100887.69
2023-05-09T15:09:28.911Z,100896.16
2023-05-09T15:12:31.576Z,100888.78
2023-05-09T15:15:33.830Z,100880.34
2023-05-09T15:18:36.333Z,100881.63
2023-05-09T15:21:38.571Z,100872.03
2023-05-09T15:24:42.702Z,100886.72
2023-05-09T15:27:44.912Z,100871.06
2023-05-09T15:30:48.373Z,100867.84
